createdAt,value
2023-04-04T00:01:33.468Z,52.40
2023-04-04T00:04:03.081Z,52.40
2023-04-04T00:06:32.492Z,52.40
2023-04-04T00:09:01.891Z,52.50
2023-04-04T00:11:31.322Z,52.40
2023-04-04T00:14:00.585Z,52.30
2023-04-04T00:16:29.891Z,52.20
2023-04-04T00:18:59.162Z,52.00
2023-04-04T00:21:28.421Z,52.00
2023-04-04T00:23:58.050Z,52.00
2023-04-04T00:26:27.466Z,51.90
2023-04-04T00:28:56.792Z,51.80
2023-04-04T00:31:27.468Z,51.80
2023-04-04T00:33:57.270Z,51.80
2023-04-04T00:36:27.221Z,51.70
2023-04-04T00:38:57.767Z,51.70
2023-04-04T00:41:27.430Z,51.80
2023-04-04T00:43:56.863Z,51.90
2023-04-04T00:46:28.089Z,51.90
2023-04-04T00:48:58.040Z,51.80
2023-04-04T00:51:27.628Z,51.90
2023-04-04T00:53:57.019Z,52.10
2023-04-04T00:56:26.552Z,52.20
2023-04-04T00:58:57.174Z,52.30
2023-04-04T01:01:27.040Z,52.40
2023-04-04T01:03:56.502Z,52.40
2023-04-04T01:06:26.641Z,52.70
2023-04-04T01:08:56.611Z,52.80
2023-04-04T01:11:27.945Z,53.00
2023-04-04T01:13:57.684Z,53.10
2023-04-04T01:16:27.346Z,53.20
2023-04-04T01:18:57.035Z,53.20
2023-04-04T01:21:28.666Z,53.30
2023-04-04T01:24:04.836Z,53.10
2023-04-04T01:26:44.268Z,52.90
2023-04-04T01:29:13.612Z,53.00
2023-04-04T01:31:49.208Z,53.10
2023-04-04T01:34:28.719Z,53.20
2023-04-04T01:37:19.139Z,53.20
2023-04-04T01:39:58.853Z,53.20
2023-04-04T01:42:28.955Z,53.10
2023-04-04T01:44:59.738Z,53.20
2023-04-04T01:47:39.863Z,53.10
2023-04-04T01:50:11.223Z,53.10
2023-04-04T01:52:41.032Z,53.20
2023-04-04T01:55:10.929Z,53.30
2023-04-04T01:57:40.615Z,53.40
2023-04-04T02:00:11.066Z,53.60
2023-04-04T02:02:46.731Z,53.90
2023-04-04T02:05:16.337Z,53.90
2023-04-04T02:07:50.746Z,54.00
2023-04-04T02:10:32.083Z,54.10
2023-04-04T02:13:01.548Z,54.20
2023-04-04T02:15:31.025Z,54.30
2023-04-04T02:18:02.025Z,54.20
2023-04-04T02:20:31.745Z,54.40
2023-04-04T02:23:01.178Z,54.50
2023-04-04T02:25:30.457Z,54.60
2023-04-04T02:27:59.704Z,54.60
2023-04-04T02:30:29.461Z,54.80
2023-04-04T02:32:59.860Z,54.90
2023-04-04T02:35:29.332Z,55.00
2023-04-04T02:37:58.673Z,55.10
2023-04-04T02:40:40.020Z,55.40
2023-04-04T02:43:09.718Z,55.40
2023-04-04T02:45:40.267Z,55.50
2023-04-04T02:48:29.893Z,55.70
2023-04-04T02:51:03.314Z,55.90
2023-04-04T02:53:33.675Z,56.00
2023-04-04T02:56:14.525Z,56.20
2023-04-04T02:58:43.734Z,56.30
2023-04-04T03:01:13.110Z,56.20
2023-04-04T03:03:42.464Z,56.30
2023-04-04T03:06:12.238Z,56.10
2023-04-04T03:08:41.541Z,56.00
2023-04-04T03:11:11.115Z,56.30
2023-04-04T03:13:40.886Z,56.40
2023-04-04T03:16:11.295Z,56.50
2023-04-04T03:18:51.045Z,56.50
2023-04-04T03:21:23.106Z,56.50
2023-04-04T03:23:52.303Z,56.80
2023-04-04T03:26:21.651Z,56.90
2023-04-04T03:28:51.063Z,57.00
2023-04-04T03:31:23.106Z,57.10
2023-04-04T03:33:52.964Z,57.30
2023-04-04T03:36:24.288Z,57.50
2023-04-04T03:38:53.573Z,57.70
2023-04-04T03:41:23.025Z,57.70
2023-04-04T03:44:17.368Z,57.80
2023-04-04T03:46:46.840Z,57.90
2023-04-04T03:49:16.506Z,57.90
2023-04-04T03:51:45.777Z,57.90
2023-04-04T03:54:15.033Z,58.00
2023-04-04T03:56:44.562Z,58.10
2023-04-04T03:59:14.202Z,58.20
2023-04-04T04:01:43.575Z,58.30
2023-04-04T04:04:12.963Z,58.50
2023-04-04T04:06:44.048Z,58.70
2023-04-04T04:09:13.347Z,58.60
2023-04-04T04:11:42.633Z,58.80
2023-04-04T04:14:12.077Z,58.60
2023-04-04T04:16:41.692Z,58.60
2023-04-04T04:19:13.078Z,58.70
2023-04-04T04:21:44.221Z,58.70
2023-04-04T04:24:13.576Z,58.80
2023-04-04T04:26:42.939Z,58.80
2023-04-04T04:29:12.647Z,58.90
2023-04-04T04:31:41.942Z,58.90
2023-04-04T04:34:11.543Z,58.70
2023-04-04T04:36:42.812Z,58.80
2023-04-04T04:39:24.305Z,58.70
2023-04-04T04:42:08.136Z,58.70
2023-04-04T04:44:40.844Z,58.60
2023-04-04T04:47:10.118Z,58.70
2023-04-04T04:49:39.493Z,58.70
2023-04-04T04:52:12.219Z,58.50
2023-04-04T04:54:45.468Z,58.60
2023-04-04T04:57:14.905Z,58.50
2023-04-04T04:59:46.724Z,58.50
2023-04-04T05:02:17.345Z,58.30
2023-04-04T05:04:49.084Z,58.10
2023-04-04T05:07:19.477Z,58.00
2023-04-04T05:09:53.779Z,57.70
2023-04-04T05:12:28.288Z,57.70
2023-04-04T05:15:00.053Z,57.60
2023-04-04T05:17:29.893Z,57.50
2023-04-04T05:20:09.749Z,57.30
2023-04-04T05:22:44.498Z,57.10
2023-04-04T05:25:16.594Z,57.00
2023-04-04T05:27:49.187Z,56.80
2023-04-04T05:30:21.904Z,56.70
2023-04-04T05:33:01.051Z,56.50
2023-04-04T05:35:32.239Z,56.30
2023-04-04T05:38:13.346Z,56.30
2023-04-04T05:40:42.616Z,56.20
2023-04-04T05:43:15.338Z,56.00
2023-04-04T05:46:04.941Z,55.70
2023-04-04T05:48:40.429Z,55.40
2023-04-04T05:51:11.213Z,54.20
2023-04-04T05:54:09.808Z,53.70
2023-04-04T05:56:40.503Z,53.10
2023-04-04T05:59:18.148Z,52.10
2023-04-04T06:01:56.735Z,51.40
2023-04-04T06:04:26.269Z,50.90
2023-04-04T06:06:57.251Z,50.60
2023-04-04T06:09:27.559Z,50.30
2023-04-04T06:11:57.163Z,50.00
2023-04-04T06:14:26.488Z,49.70
2023-04-04T06:17:06.828Z,49.40
2023-04-04T06:19:37.402Z,48.80
2023-04-04T06:22:06.583Z,48.30
2023-04-04T06:24:39.466Z,47.80
2023-04-04T06:27:13.228Z,47.30
2023-04-04T06:29:42.924Z,46.90
2023-04-04T06:32:12.952Z,46.70
2023-04-04T06:34:45.066Z,46.10
2023-04-04T06:37:15.623Z,45.60
2023-04-04T06:39:53.991Z,45.10
2023-04-04T06:42:27.228Z,44.60
2023-04-04T06:45:01.105Z,44.30
2023-04-04T06:47:43.223Z,44.20
2023-04-04T06:50:14.102Z,44.10
2023-04-04T06:52:45.714Z,43.90
2023-04-04T06:55:15.757Z,43.70
2023-04-04T06:57:45.355Z,43.80
2023-04-04T07:00:15.778Z,43.70
2023-04-04T07:02:45.700Z,43.40
2023-04-04T07:05:18.120Z,43.30
2023-04-04T07:07:48.027Z,43.30
2023-04-04T07:10:17.385Z,43.00
2023-04-04T07:12:46.792Z,42.50
2023-04-04T07:15:16.293Z,42.10
2023-04-04T07:17:45.587Z,41.70
2023-04-04T07:20:14.950Z,41.30
2023-04-04T07:22:44.564Z,40.80
2023-04-04T07:25:14.149Z,40.40
2023-04-04T07:27:43.346Z,40.10
2023-04-04T07:30:13.176Z,39.80
2023-04-04T07:32:42.546Z,39.40
2023-04-04T07:35:11.888Z,39.30
2023-04-04T07:37:41.138Z,38.90
2023-04-04T07:40:10.875Z,38.50
2023-04-04T07:42:45.584Z,38.40
2023-04-04T07:45:14.898Z,38.20
2023-04-04T07:47:45.385Z,37.90
2023-04-04T07:50:16.385Z,37.70
2023-04-04T07:52:51.532Z,37.60
2023-04-04T07:55:21.050Z,37.40
2023-04-04T07:57:52.327Z,36.90
2023-04-04T08:00:22.794Z,36.90
2023-04-04T08:03:05.654Z,36.80
2023-04-04T08:05:37.576Z,36.60
2023-04-04T08:08:07.226Z,36.30
2023-04-04T08:10:36.512Z,36.10
2023-04-04T08:13:38.228Z,35.90
2023-04-04T08:16:13.891Z,35.70
2023-04-04T08:20:02.171Z,35.40
2023-04-04T08:22:33.888Z,35.30
2023-04-04T08:25:07.287Z,35.20
2023-04-04T08:27:48.015Z,35.10
2023-04-04T08:30:17.699Z,34.90
2023-04-04T08:32:48.831Z,34.80
2023-04-04T08:35:23.659Z,34.70
2023-04-04T08:37:53.224Z,34.60
2023-04-04T08:40:25.517Z,34.50
2023-04-04T08:43:00.992Z,34.50
2023-04-04T08:45:34.386Z,34.40
2023-04-04T08:48:09.337Z,34.40
2023-04-04T08:50:44.063Z,34.40
2023-04-04T08:53:17.474Z,34.40
2023-04-04T08:55:51.486Z,34.40
2023-04-04T08:58:25.145Z,34.30
2023-04-04T09:00:56.227Z,34.40
2023-04-04T09:03:28.689Z,34.40
2023-04-04T09:06:02.313Z,34.40
2023-04-04T09:08:33.411Z,34.50
2023-04-04T09:11:06.401Z,34.70
2023-04-04T09:13:39.136Z,34.70
2023-04-04T09:16:13.545Z,34.80
2023-04-04T09:18:54.768Z,34.60
2023-04-04T09:21:24.489Z,34.90
2023-04-04T09:24:01.825Z,34.80
2023-04-04T09:26:52.140Z,34.60
2023-04-04T09:29:22.013Z,34.60
2023-04-04T09:31:51.536Z,34.50
2023-04-04T09:34:21.237Z,34.30
2023-04-04T09:36:50.452Z,34.10
2023-04-04T09:39:20.910Z,33.90
2023-04-04T09:41:50.380Z,33.40
2023-04-04T09:44:19.924Z,32.80
2023-04-04T09:46:52.270Z,32.40
2023-04-04T09:49:22.893Z,31.80
2023-04-04T09:51:55.187Z,31.60
2023-04-04T09:54:29.536Z,31.40
2023-04-04T09:57:01.515Z,31.00
2023-04-04T09:59:30.976Z,30.90
2023-04-04T10:02:02.323Z,30.80
2023-04-04T10:04:32.396Z,30.60
2023-04-04T10:07:01.856Z,30.50
2023-04-04T10:09:31.448Z,30.30
2023-04-04T10:12:11.373Z,30.40
2023-04-04T10:14:41.180Z,31.00
2023-04-04T10:17:10.598Z,30.40
2023-04-04T10:19:40.941Z,30.80
2023-04-04T10:22:11.514Z,30.10
2023-04-04T10:24:40.872Z,30.00
2023-04-04T10:27:11.562Z,30.00
2023-04-04T10:29:41.004Z,30.10
2023-04-04T10:32:17.661Z,30.00
2023-04-04T10:34:58.500Z,29.90
2023-04-04T10:37:31.329Z,30.00
2023-04-04T10:40:15.257Z,30.10
2023-04-04T10:42:47.455Z,30.00
2023-04-04T10:45:21.593Z,30.00
2023-04-04T10:47:52.129Z,30.10
2023-04-04T10:50:21.581Z,30.00
2023-04-04T10:52:51.575Z,30.00
2023-04-04T10:55:21.826Z,29.90
2023-04-04T10:57:53.312Z,29.80
2023-04-04T11:00:24.366Z,29.80
2023-04-04T11:02:55.776Z,29.90
2023-04-04T11:05:42.575Z,29.90
2023-04-04T11:08:17.077Z,30.10
2023-04-04T11:10:49.098Z,30.20
2023-04-04T11:13:22.861Z,30.20
2023-04-04T11:16:05.206Z,30.20
2023-04-04T11:18:40.363Z,30.20
2023-04-04T11:21:20.262Z,30.20
2023-04-04T11:23:49.776Z,30.10
2023-04-04T11:26:28.079Z,30.00
2023-04-04T11:29:02.307Z,29.80
2023-04-04T11:31:44.037Z,30.00
2023-04-04T11:34:14.893Z,29.90
2023-04-04T11:36:45.461Z,30.00
2023-04-04T11:39:22.898Z,30.00
2023-04-04T11:41:55.653Z,30.00
2023-04-04T11:44:30.727Z,30.00
2023-04-04T11:47:11.360Z,30.20
2023-04-04T11:49:42.976Z,30.30
2023-04-04T11:52:14.787Z,30.30
2023-04-04T11:54:46.821Z,30.50
2023-04-04T11:57:18.070Z,30.50
2023-04-04T11:59:51.945Z,30.40
2023-04-04T12:02:32.993Z,30.40
2023-04-04T12:05:05.704Z,30.20
2023-04-04T12:07:35.596Z,30.00
2023-04-04T12:10:06.132Z,30.00
2023-04-04T12:12:39.621Z,30.00
2023-04-04T12:15:17.534Z,29.90
2023-04-04T12:17:50.138Z,29.80
2023-04-04T12:20:23.669Z,29.70
2023-04-04T12:22:53.365Z,29.40
2023-04-04T12:25:28.496Z,29.30
2023-04-04T12:27:58.013Z,29.10
2023-04-04T12:30:27.402Z,28.90
2023-04-04T12:32:57.311Z,28.90
2023-04-04T12:35:26.618Z,28.90
2023-04-04T12:38:04.660Z,28.90
2023-04-04T12:40:37.472Z,29.00
2023-04-04T12:43:08.778Z,28.90
2023-04-04T12:45:39.694Z,28.90
2023-04-04T12:48:11.570Z,28.90
2023-04-04T12:50:54.423Z,29.00
2023-04-04T12:53:30.029Z,28.90
2023-04-04T12:56:05.121Z,29.00
2023-04-04T12:58:37.109Z,29.10
2023-04-04T13:01:09.576Z,29.00
2023-04-04T13:03:40.125Z,28.90
2023-04-04T13:06:21.488Z,28.80
2023-04-04T13:08:56.178Z,28.60
2023-04-04T13:11:28.603Z,28.20
2023-04-04T13:14:03.281Z,28.00
2023-04-04T13:16:37.876Z,26.50
2023-04-04T13:19:10.817Z,25.30
2023-04-04T13:21:47.135Z,24.30
2023-04-04T13:24:18.777Z,23.60
2023-04-04T13:26:52.161Z,23.00
2023-04-04T13:29:25.164Z,21.70
2023-04-04T13:31:56.608Z,20.80
2023-04-04T13:34:27.469Z,20.40
2023-04-04T13:37:08.090Z,20.00
2023-04-04T13:39:37.575Z,19.60
2023-04-04T13:42:07.940Z,18.80
2023-04-04T13:44:37.214Z,18.40
2023-04-04T13:47:06.421Z,17.90
2023-04-04T13:49:35.954Z,18.00
2023-04-04T13:52:05.313Z,17.60
2023-04-04T13:54:34.460Z,17.30
2023-04-04T13:57:03.742Z,17.30
2023-04-04T13:59:33.078Z,18.20
2023-04-04T14:02:03.549Z,19.90
2023-04-04T14:04:32.966Z,21.50
2023-04-04T14:07:02.485Z,22.60
2023-04-04T14:09:31.879Z,23.40
2023-04-04T14:12:01.600Z,24.20
2023-04-04T14:14:31.307Z,24.70
2023-04-04T14:17:01.201Z,25.30
2023-04-04T14:19:30.410Z,25.80
2023-04-04T14:21:59.608Z,26.20
2023-04-04T14:24:28.904Z,26.50
2023-04-04T14:26:58.274Z,26.90
2023-04-04T14:29:28.276Z,27.30
2023-04-04T14:31:57.730Z,27.60
2023-04-04T14:34:28.036Z,27.80
2023-04-04T14:36:57.306Z,28.00
2023-04-04T14:39:26.724Z,28.30
2023-04-04T14:41:56.672Z,28.50
2023-04-04T14:44:26.081Z,28.70
2023-04-04T14:46:55.351Z,28.90
2023-04-04T14:49:24.660Z,29.00
2023-04-04T14:51:54.004Z,29.20
2023-04-04T14:54:23.234Z,29.40
2023-04-04T14:56:52.886Z,29.50
2023-04-04T14:59:22.234Z,29.60
2023-04-04T15:01:52.049Z,29.80
2023-04-04T15:04:21.379Z,29.90
2023-04-04T15:06:50.933Z,30.00
2023-04-04T15:09:20.456Z,30.30
2023-04-04T15:11:49.842Z,30.50
2023-04-04T15:14:19.068Z,30.80
2023-04-04T15:16:48.377Z,31.20
2023-04-04T15:19:17.795Z,31.30
2023-04-04T15:21:48.655Z,31.50
2023-04-04T15:24:17.914Z,31.60
2023-04-04T15:26:47.071Z,31.90
2023-04-04T15:29:16.245Z,31.90
2023-04-04T15:31:45.815Z,32.10
2023-04-04T15:34:15.207Z,32.20
2023-04-04T15:36:44.612Z,32.30
2023-04-04T15:39:14.065Z,32.40
2023-04-04T15:41:43.519Z,32.30
2023-04-04T15:44:12.784Z,32.30
2023-04-04T15:46:42.022Z,32.20
2023-04-04T15:49:11.285Z,32.40
2023-04-04T15:51:43.076Z,32.50
2023-04-04T15:54:12.777Z,32.60
2023-04-04T15:56:42.105Z,32.80
2023-04-04T15:59:11.467Z,32.90
2023-04-04T16:01:42.007Z,33.20
2023-04-04T16:04:11.307Z,33.30
2023-04-04T16:06:40.656Z,33.40
2023-04-04T16:09:09.865Z,33.60
2023-04-04T16:11:40.448Z,33.70
2023-04-04T16:14:10.981Z,33.90
2023-04-04T16:16:41.413Z,34.10
2023-04-04T16:19:14.209Z,34.20
2023-04-04T16:21:47.074Z,34.30
2023-04-04T16:24:16.254Z,34.40
2023-04-04T16:26:47.712Z,35.20
2023-04-04T16:29:17.636Z,34.80
2023-04-04T16:31:46.981Z,35.20
2023-04-04T16:34:16.472Z,35.40
2023-04-04T16:36:45.837Z,35.70
2023-04-04T16:39:15.380Z,36.00
2023-04-04T16:41:44.627Z,36.30
2023-04-04T16:44:15.432Z,36.60
2023-04-04T16:46:45.101Z,36.80
2023-04-04T16:49:14.536Z,37.20
2023-04-04T16:51:43.768Z,37.40
2023-04-04T16:54:13.820Z,37.60
2023-04-04T16:56:43.154Z,37.80
2023-04-04T16:59:12.450Z,37.90
2023-04-04T17:01:41.730Z,38.10
2023-04-04T17:04:40.346Z,38.40
2023-04-04T17:07:11.684Z,38.60
2023-04-04T17:09:41.217Z,38.80
2023-04-04T17:12:10.790Z,39.00
2023-04-04T17:14:40.183Z,39.20
2023-04-04T17:17:10.522Z,39.40
2023-04-04T17:19:39.872Z,39.60
2023-04-04T17:22:09.069Z,39.80
2023-04-04T17:24:38.325Z,39.90
2023-04-04T17:27:07.889Z,40.00
2023-04-04T17:29:37.416Z,39.90
2023-04-04T17:32:07.373Z,40.50
2023-04-04T17:34:36.596Z,39.90
2023-04-04T17:37:09.136Z,39.90
2023-04-04T17:39:38.493Z,40.20
2023-04-04T17:42:08.132Z,40.30
2023-04-04T17:44:37.738Z,40.40
2023-04-04T17:47:08.529Z,40.50
2023-04-04T17:49:38.321Z,40.70
2023-04-04T17:52:07.659Z,40.80
2023-04-04T17:54:36.919Z,41.00
2023-04-04T17:57:07.399Z,41.00
2023-04-04T17:59:38.092Z,41.00
2023-04-04T18:02:07.428Z,41.10
2023-04-04T18:04:39.816Z,41.30
2023-04-04T18:07:09.361Z,41.30
2023-04-04T18:09:38.818Z,41.50
2023-04-04T18:12:11.993Z,41.50
2023-04-04T18:14:42.178Z,41.50
2023-04-04T18:17:14.344Z,41.60
2023-04-04T18:19:47.355Z,41.80
2023-04-04T18:22:20.480Z,42.00
2023-04-04T18:24:52.245Z,42.00
2023-04-04T18:27:21.509Z,42.10
2023-04-04T18:29:50.696Z,42.20
2023-04-04T18:32:21.686Z,42.30
2023-04-04T18:34:51.197Z,42.30
2023-04-04T18:37:20.504Z,42.50
2023-04-04T18:39:49.761Z,42.60
2023-04-04T18:42:19.050Z,42.80
2023-04-04T18:44:48.379Z,42.90
2023-04-04T18:47:17.755Z,43.10
2023-04-04T18:49:47.877Z,43.90
2023-04-04T18:52:17.067Z,43.40
2023-04-04T18:54:47.052Z,43.50
2023-04-04T18:57:17.027Z,43.70
2023-04-04T18:59:46.972Z,43.90
2023-04-04T19:02:16.435Z,44.10
2023-04-04T19:04:46.882Z,44.30
2023-04-04T19:07:22.143Z,44.50
2023-04-04T19:09:51.856Z,44.60
2023-04-04T19:12:21.320Z,44.80
2023-04-04T19:14:50.865Z,45.00
2023-04-04T19:17:20.131Z,45.20
2023-04-04T19:19:49.400Z,45.20
2023-04-04T19:22:18.623Z,45.50
2023-04-04T19:24:47.965Z,45.60
2023-04-04T19:27:17.188Z,45.80
2023-04-04T19:29:46.566Z,45.90
2023-04-04T19:32:19.696Z,46.00
2023-04-04T19:34:49.850Z,46.10
2023-04-04T19:37:19.288Z,46.30
2023-04-04T19:39:48.968Z,46.30
2023-04-04T19:42:26.254Z,46.40
2023-04-04T19:44:55.818Z,46.50
2023-04-04T19:47:25.081Z,46.60
2023-04-04T19:49:54.452Z,46.60
2023-04-04T19:52:24.524Z,46.70
2023-04-04T19:54:53.973Z,46.90
2023-04-04T19:57:23.478Z,46.80
2023-04-04T19:59:58.691Z,46.90
2023-04-04T20:02:30.156Z,46.90
2023-04-04T20:04:59.704Z,47.00
2023-04-04T20:07:29.255Z,47.00
2023-04-04T20:09:58.599Z,47.70
2023-04-04T20:12:33.891Z,47.00
2023-04-04T20:15:08.839Z,46.90
2023-04-04T20:17:38.085Z,46.90
2023-04-04T20:20:11.257Z,46.90
2023-04-04T20:22:40.794Z,46.90
2023-04-04T20:25:31.301Z,47.00
2023-04-04T20:28:00.664Z,47.10
2023-04-04T20:30:33.731Z,47.20
2023-04-04T20:33:08.082Z,47.20
2023-04-04T20:35:37.494Z,47.30
2023-04-04T20:38:07.477Z,47.40
2023-04-04T20:40:39.449Z,47.50
2023-04-04T20:43:09.082Z,47.70
2023-04-04T20:45:45.093Z,47.90
2023-04-04T20:48:33.022Z,48.00
2023-04-04T20:51:02.558Z,47.90
2023-04-04T20:53:32.938Z,48.00
2023-04-04T20:56:02.614Z,48.10
2023-04-04T20:58:32.239Z,48.10
2023-04-04T21:01:01.922Z,48.10
2023-04-04T21:03:34.318Z,48.30
2023-04-04T21:06:09.746Z,48.30
2023-04-04T21:08:49.526Z,48.80
2023-04-04T21:11:28.965Z,48.10
2023-04-04T21:13:58.339Z,48.10
2023-04-04T21:16:28.010Z,48.30
2023-04-04T21:18:59.694Z,48.40
2023-04-04T21:21:29.390Z,48.50
2023-04-04T21:24:00.261Z,48.70
2023-04-04T21:26:32.195Z,48.90
2023-04-04T21:29:27.320Z,49.00
2023-04-04T21:31:57.503Z,48.90
2023-04-04T21:34:27.961Z,48.80
2023-04-04T21:37:01.552Z,48.80
2023-04-04T21:39:31.232Z,48.90
2023-04-04T21:42:07.867Z,48.80
2023-04-04T21:44:38.753Z,48.90
2023-04-04T21:47:08.015Z,49.00
2023-04-04T21:49:41.497Z,49.10
2023-04-04T21:52:15.705Z,49.10
2023-04-04T21:54:46.221Z,49.10
2023-04-04T21:57:16.930Z,49.20
2023-04-04T21:59:47.272Z,49.30
2023-04-04T22:02:17.728Z,49.30
2023-04-04T22:04:46.952Z,49.40
2023-04-04T22:07:18.514Z,49.40
2023-04-04T22:09:53.022Z,50.00
2023-04-04T22:12:23.324Z,49.40
2023-04-04T22:14:53.626Z,49.60
2023-04-04T22:17:23.407Z,49.50
2023-04-04T22:19:59.701Z,49.50
2023-04-04T22:22:30.199Z,49.50
2023-04-04T22:25:07.088Z,49.50
2023-04-04T22:27:39.431Z,50.10
2023-04-04T22:30:15.644Z,49.50
2023-04-04T22:32:49.072Z,49.70
2023-04-04T22:35:18.414Z,49.80
2023-04-04T22:37:52.254Z,50.00
2023-04-04T22:40:27.956Z,50.10
2023-04-04T22:42:57.864Z,50.00
2023-04-04T22:45:29.645Z,50.00
2023-04-04T22:48:02.412Z,50.00
2023-04-04T22:50:31.977Z,50.00
2023-04-04T22:53:02.114Z,50.10
2023-04-04T22:55:31.646Z,50.10
2023-04-04T22:58:02.277Z,50.10
2023-04-04T23:00:34.753Z,50.10
2023-04-04T23:03:13.112Z,50.10
2023-04-04T23:05:43.422Z,50.40
2023-04-04T23:08:13.163Z,50.40
2023-04-04T23:10:45.124Z,50.50
2023-04-04T23:13:14.452Z,50.70
2023-04-04T23:15:45.497Z,50.90
2023-04-04T23:18:15.255Z,51.20
2023-04-04T23:20:46.604Z,51.30
2023-04-04T23:23:16.681Z,51.30
2023-04-04T23:25:45.983Z,51.40
2023-04-04T23:28:18.569Z,51.40
2023-04-04T23:30:47.772Z,51.20
2023-04-04T23:33:17.300Z,51.20
2023-04-04T23:35:46.640Z,51.30
2023-04-04T23:38:15.926Z,51.40
2023-04-04T23:40:46.421Z,51.30
2023-04-04T23:43:18.277Z,51.10
2023-04-04T23:45:47.950Z,51.00
2023-04-04T23:48:18.571Z,50.90
2023-04-04T23:50:50.196Z,50.80
2023-04-04T23:53:19.544Z,50.90
2023-04-04T23:55:50.085Z,51.10
2023-04-04T23:58:19.498Z,51.00
